sensor_id;sensor_type;location;lat;lon;timestamp;P1;durP1;ratioP1;P2;durP2;ratioP2
42632;SDS011;28261;53.304;-6.284;2023-06-22T00:00:40;4.50;;;2.33;;
42632;SDS011;28261;53.304;-6.284;2023-06-22T00:02:45;5.40;;;2.38;;
42632;SDS011;28261;53.304;-6.284;2023-06-22T00:04:49;5.47;;;2.08;;
42632;SDS011;28261;53.304;-6.284;2023-06-22T00:06:52;5.20;;;2.25;;
42632;SDS011;28261;53.304;-6.284;2023-06-22T00:08:55;3.00;;;2.15;;
42632;SDS011;28261;53.304;-6.284;2023-06-22T00:11:00;6.13;;;2.03;;
42632;SDS011;28261;53.304;-6.284;2023-06-22T00:15:07;4.15;;;2.00;;
42632;SDS011;28261;53.304;-6.284;2023-06-22T00:17:10;4.63;;;2.28;;
42632;SDS011;28261;53.304;-6.284;2023-06-22T00:19:14;3.83;;;2.30;;
42632;SDS011;28261;53.304;-6.284;2023-06-22T00:21:18;2.97;;;2.03;;
42632;SDS011;28261;53.304;-6.284;2023-06-22T00:23:22;5.80;;;2.13;;
42632;SDS011;28261;53.304;-6.284;2023-06-22T00:25:25;3.63;;;1.80;;
42632;SDS011;28261;53.304;-6.284;2023-06-22T00:27:30;3.58;;;1.75;;
42632;SDS011;28261;53.304;-6.284;2023-06-22T00:31:36;4.47;;;2.78;;
42632;SDS011;28261;53.304;-6.284;2023-06-22T00:33:40;5.15;;;2.20;;
42632;SDS011;28261;53.304;-6.284;2023-06-22T00:35:43;4.55;;;2.03;;
42632;SDS011;28261;53.304;-6.284;2023-06-22T00:37:46;4.35;;;2.28;;
42632;SDS011;28261;53.304;-6.284;2023-06-22T00:39:50;3.13;;;2.30;;
42632;SDS011;28261;53.304;-6.284;2023-06-22T00:41:53;4.35;;;2.33;;
42632;SDS011;28261;53.304;-6.284;2023-06-22T00:43:59;4.50;;;2.40;;
42632;SDS011;28261;53.304;-6.284;2023-06-22T00:46:02;4.45;;;2.20;;
42632;SDS011;28261;53.304;-6.284;2023-06-22T00:48:06;3.30;;;1.92;;
42632;SDS011;28261;53.304;-6.284;2023-06-22T00:50:11;6.25;;;2.17;;
42632;SDS011;28261;53.304;-6.284;2023-06-22T00:52:22;4.38;;;2.60;;
42632;SDS011;28261;53.304;-6.284;2023-06-22T00:54:30;3.25;;;2.03;;
42632;SDS011;28261;53.304;-6.284;2023-06-22T00:56:34;4.30;;;2.10;;
42632;SDS011;28261;53.304;-6.284;2023-06-22T00:58:39;5.22;;;2.17;;
42632;SDS011;28261;53.304;-6.284;2023-06-22T01:00:45;3.08;;;1.83;;
42632;SDS011;28261;53.304;-6.284;2023-06-22T01:04:53;3.17;;;2.15;;
42632;SDS011;28261;53.304;-6.284;2023-06-22T01:06:58;4.85;;;2.13;;
42632;SDS011;28261;53.304;-6.284;2023-06-22T01:09:11;3.63;;;2.03;;
42632;SDS011;28261;53.304;-6.284;2023-06-22T01:11:19;3.35;;;2.28;;
42632;SDS011;28261;53.304;-6.284;2023-06-22T01:13:29;3.92;;;2.22;;
42632;SDS011;28261;53.304;-6.284;2023-06-22T01:15:39;4.55;;;2.28;;
42632;SDS011;28261;53.304;-6.284;2023-06-22T01:17:49;4.05;;;1.95;;
42632;SDS011;28261;53.304;-6.284;2023-06-22T01:19:55;4.43;;;2.35;;
42632;SDS011;28261;53.304;-6.284;2023-06-22T01:21:59;4.30;;;2.03;;
42632;SDS011;28261;53.304;-6.284;2023-06-22T01:24:15;4.38;;;2.10;;
42632;SDS011;28261;53.304;-6.284;2023-06-22T01:26:28;3.88;;;2.00;;
42632;SDS011;28261;53.304;-6.284;2023-06-22T01:28:46;3.47;;;2.20;;
42632;SDS011;28261;53.304;-6.284;2023-06-22T01:30:51;3.75;;;2.00;;
42632;SDS011;28261;53.304;-6.284;2023-06-22T01:33:05;5.25;;;2.30;;
42632;SDS011;28261;53.304;-6.284;2023-06-22T01:35:09;3.00;;;2.10;;
42632;SDS011;28261;53.304;-6.284;2023-06-22T01:37:13;4.43;;;2.08;;
42632;SDS011;28261;53.304;-6.284;2023-06-22T01:39:18;3.88;;;1.88;;
42632;SDS011;28261;53.304;-6.284;2023-06-22T01:41:24;3.67;;;2.10;;
42632;SDS011;28261;53.304;-6.284;2023-06-22T01:43:28;3.40;;;2.13;;
42632;SDS011;28261;53.304;-6.284;2023-06-22T01:45:34;4.57;;;2.45;;
42632;SDS011;28261;53.304;-6.284;2023-06-22T01:49:43;4.72;;;2.08;;
42632;SDS011;28261;53.304;-6.284;2023-06-22T01:51:47;5.80;;;2.92;;
42632;SDS011;28261;53.304;-6.284;2023-06-22T01:53:50;4.45;;;2.10;;
42632;SDS011;28261;53.304;-6.284;2023-06-22T01:55:54;3.80;;;2.05;;
42632;SDS011;28261;53.304;-6.284;2023-06-22T01:57:58;4.22;;;2.38;;
42632;SDS011;28261;53.304;-6.284;2023-06-22T02:00:03;3.88;;;2.50;;
42632;SDS011;28261;53.304;-6.284;2023-06-22T02:02:18;3.90;;;2.10;;
42632;SDS011;28261;53.304;-6.284;2023-06-22T02:04:31;7.00;;;1.92;;
42632;SDS011;28261;53.304;-6.284;2023-06-22T02:06:38;4.60;;;2.30;;
42632;SDS011;28261;53.304;-6.284;2023-06-22T02:08:46;6.60;;;2.88;;
42632;SDS011;28261;53.304;-6.284;2023-06-22T02:10:52;7.97;;;2.92;;
42632;SDS011;28261;53.304;-6.284;2023-06-22T02:12:58;3.90;;;2.28;;
42632;SDS011;28261;53.304;-6.284;2023-06-22T02:15:02;4.72;;;2.25;;
42632;SDS011;28261;53.304;-6.284;2023-06-22T02:17:07;5.90;;;2.55;;
42632;SDS011;28261;53.304;-6.284;2023-06-22T02:21:20;6.30;;;2.83;;
42632;SDS011;28261;53.304;-6.284;2023-06-22T02:23:24;5.80;;;2.53;;
42632;SDS011;28261;53.304;-6.284;2023-06-22T02:25:28;5.90;;;2.25;;
42632;SDS011;28261;53.304;-6.284;2023-06-22T02:27:31;3.28;;;2.33;;
42632;SDS011;28261;53.304;-6.284;2023-06-22T02:29:35;4.78;;;2.40;;
42632;SDS011;28261;53.304;-6.284;2023-06-22T02:31:38;4.30;;;2.17;;
42632;SDS011;28261;53.304;-6.284;2023-06-22T02:33:42;6.53;;;2.53;;
42632;SDS011;28261;53.304;-6.284;2023-06-22T02:35:49;5.03;;;2.67;;
42632;SDS011;28261;53.304;-6.284;2023-06-22T02:37:52;5.85;;;2.67;;
42632;SDS011;28261;53.304;-6.284;2023-06-22T02:39:56;5.32;;;2.40;;
42632;SDS011;28261;53.304;-6.284;2023-06-22T02:41:59;4.78;;;2.75;;
42632;SDS011;28261;53.304;-6.284;2023-06-22T02:44:03;4.05;;;2.30;;
42632;SDS011;28261;53.304;-6.284;2023-06-22T02:46:06;5.00;;;2.30;;
42632;SDS011;28261;53.304;-6.284;2023-06-22T02:48:10;5.20;;;2.47;;
42632;SDS011;28261;53.304;-6.284;2023-06-22T02:50:14;4.53;;;2.58;;
42632;SDS011;28261;53.304;-6.284;2023-06-22T02:52:19;4.32;;;2.50;;
42632;SDS011;28261;53.304;-6.284;2023-06-22T02:56:28;4.95;;;2.30;;
42632;SDS011;28261;53.304;-6.284;2023-06-22T02:58:34;4.65;;;2.60;;
42632;SDS011;28261;53.304;-6.284;2023-06-22T03:00:44;4.90;;;2.53;;
42632;SDS011;28261;53.304;-6.284;2023-06-22T03:02:48;5.07;;;2.95;;
42632;SDS011;28261;53.304;-6.284;2023-06-22T03:04:53;4.35;;;2.50;;
42632;SDS011;28261;53.304;-6.284;2023-06-22T03:06:56;4.45;;;2.88;;
42632;SDS011;28261;53.304;-6.284;2023-06-22T03:09:06;5.82;;;3.05;;
42632;SDS011;28261;53.304;-6.284;2023-06-22T03:11:11;5.53;;;2.80;;
42632;SDS011;28261;53.304;-6.284;2023-06-22T03:13:15;7.43;;;3.13;;
42632;SDS011;28261;53.304;-6.284;2023-06-22T03:15:18;5.47;;;2.28;;
42632;SDS011;28261;53.304;-6.284;2023-06-22T03:17:25;8.27;;;2.80;;
42632;SDS011;28261;53.304;-6.284;2023-06-22T03:19:28;4.95;;;3.03;;
42632;SDS011;28261;53.304;-6.284;2023-06-22T03:21:33;3.78;;;2.65;;
42632;SDS011;28261;53.304;-6.284;2023-06-22T03:23:36;4.63;;;2.70;;
42632;SDS011;28261;53.304;-6.284;2023-06-22T03:25:41;5.53;;;2.63;;
42632;SDS011;28261;53.304;-6.284;2023-06-22T03:27:46;4.82;;;2.95;;
42632;SDS011;28261;53.304;-6.284;2023-06-22T03:29:49;4.93;;;2.58;;
42632;SDS011;28261;53.304;-6.284;2023-06-22T03:31:53;4.07;;;2.50;;
42632;SDS011;28261;53.304;-6.284;2023-06-22T03:33:56;6.18;;;2.80;;
42632;SDS011;28261;53.304;-6.284;2023-06-22T03:36:00;8.88;;;2.50;;
42632;SDS011;28261;53.304;-6.284;2023-06-22T03:38:03;6.95;;;3.45;;
42632;SDS011;28261;53.304;-6.284;2023-06-22T03:40:07;8.63;;;2.63;;
42632;SDS011;28261;53.304;-6.284;2023-06-22T03:42:13;6.10;;;2.60;;
42632;SDS011;28261;53.304;-6.284;2023-06-22T03:44:16;4.38;;;2.63;;
42632;SDS011;28261;53.304;-6.284;2023-06-22T03:46:19;4.00;;;2.70;;
42632;SDS011;28261;53.304;-6.284;2023-06-22T03:48:23;8.23;;;2.97;;
42632;SDS011;28261;53.304;-6.284;2023-06-22T03:50:26;3.38;;;2.42;;
42632;SDS011;28261;53.304;-6.284;2023-06-22T03:52:30;5.10;;;2.45;;
42632;SDS011;28261;53.304;-6.284;2023-06-22T03:54:34;6.05;;;2.83;;
42632;SDS011;28261;53.304;-6.284;2023-06-22T03:56:37;4.13;;;2.75;;
42632;SDS011;28261;53.304;-6.284;2023-06-22T03:58:42;5.72;;;2.72;;
42632;SDS011;28261;53.304;-6.284;2023-06-22T04:00:46;5.38;;;3.67;;
42632;SDS011;28261;53.304;-6.284;2023-06-22T04:02:50;5.70;;;2.88;;
42632;SDS011;28261;53.304;-6.284;2023-06-22T04:04:54;4.57;;;2.78;;
42632;SDS011;28261;53.304;-6.284;2023-06-22T04:06:58;4.93;;;3.13;;
42632;SDS011;28261;53.304;-6.284;2023-06-22T04:09:01;5.38;;;2.60;;
42632;SDS011;28261;53.304;-6.284;2023-06-22T04:11:05;4.47;;;3.25;;
42632;SDS011;28261;53.304;-6.284;2023-06-22T04:13:08;6.40;;;2.55;;
42632;SDS011;28261;53.304;-6.284;2023-06-22T04:15:13;5.90;;;3.38;;
42632;SDS011;28261;53.304;-6.284;2023-06-22T04:17:17;5.03;;;3.55;;
42632;SDS011;28261;53.304;-6.284;2023-06-22T04:19:21;6.55;;;3.00;;
42632;SDS011;28261;53.304;-6.284;2023-06-22T04:21:24;3.88;;;2.75;;
42632;SDS011;28261;53.304;-6.284;2023-06-22T04:23:28;4.88;;;2.80;;
42632;SDS011;28261;53.304;-6.284;2023-06-22T04:25:31;5.72;;;2.55;;
42632;SDS011;28261;53.304;-6.284;2023-06-22T04:27:35;3.83;;;2.38;;
42632;SDS011;28261;53.304;-6.284;2023-06-22T04:29:41;4.78;;;3.05;;
42632;SDS011;28261;53.304;-6.284;2023-06-22T04:31:52;9.82;;;2.83;;
42632;SDS011;28261;53.304;-6.284;2023-06-22T04:33:58;6.57;;;2.90;;
42632;SDS011;28261;53.304;-6.284;2023-06-22T04:36:07;4.47;;;2.60;;
42632;SDS011;28261;53.304;-6.284;2023-06-22T04:38:14;4.18;;;3.15;;
42632;SDS011;28261;53.304;-6.284;2023-06-22T04:40:18;4.55;;;2.78;;
42632;SDS011;28261;53.304;-6.284;2023-06-22T04:42:21;6.65;;;2.58;;
42632;SDS011;28261;53.304;-6.284;2023-06-22T04:44:25;4.10;;;2.65;;
42632;SDS011;28261;53.304;-6.284;2023-06-22T04:46:28;4.68;;;2.92;;
42632;SDS011;28261;53.304;-6.284;2023-06-22T04:48:33;5.07;;;3.08;;
42632;SDS011;28261;53.304;-6.284;2023-06-22T04:50:37;8.82;;;3.13;;
42632;SDS011;28261;53.304;-6.284;2023-06-22T04:52:41;5.90;;;2.92;;
42632;SDS011;28261;53.304;-6.284;2023-06-22T04:54:44;6.35;;;2.97;;
42632;SDS011;28261;53.304;-6.284;2023-06-22T04:56:50;4.72;;;2.60;;
42632;SDS011;28261;53.304;-6.284;2023-06-22T04:58:58;10.75;;;2.92;;
42632;SDS011;28261;53.304;-6.284;2023-06-22T05:01:01;6.13;;;3.05;;
42632;SDS011;28261;53.304;-6.284;2023-06-22T05:03:05;4.38;;;2.72;;
42632;SDS011;28261;53.304;-6.284;2023-06-22T05:05:22;4.63;;;2.65;;
42632;SDS011;28261;53.304;-6.284;2023-06-22T05:07:26;6.47;;;2.83;;
42632;SDS011;28261;53.304;-6.284;2023-06-22T05:09:29;6.45;;;2.92;;
42632;SDS011;28261;53.304;-6.284;2023-06-22T05:11:35;5.63;;;3.05;;
42632;SDS011;28261;53.304;-6.284;2023-06-22T05:13:38;4.75;;;2.70;;
42632;SDS011;28261;53.304;-6.284;2023-06-22T05:15:42;4.38;;;3.20;;
42632;SDS011;28261;53.304;-6.284;2023-06-22T05:17:45;5.50;;;2.85;;
42632;SDS011;28261;53.304;-6.284;2023-06-22T05:19:49;5.05;;;2.95;;
42632;SDS011;28261;53.304;-6.284;2023-06-22T05:21:54;3.92;;;2.63;;
42632;SDS011;28261;53.304;-6.284;2023-06-22T05:23:57;4.25;;;2.63;;
42632;SDS011;28261;53.304;-6.284;2023-06-22T05:26:01;6.03;;;2.75;;
42632;SDS011;28261;53.304;-6.284;2023-06-22T05:28:05;4.07;;;2.25;;
42632;SDS011;28261;53.304;-6.284;2023-06-22T05:30:13;6.60;;;3.00;;
42632;SDS011;28261;53.304;-6.284;2023-06-22T05:32:20;4.20;;;2.83;;
42632;SDS011;28261;53.304;-6.284;2023-06-22T05:34:23;3.90;;;2.72;;
42632;SDS011;28261;53.304;-6.284;2023-06-22T05:36:27;4.60;;;3.20;;
42632;SDS011;28261;53.304;-6.284;2023-06-22T05:38:32;3.72;;;2.60;;
42632;SDS011;28261;53.304;-6.284;2023-06-22T05:40:35;5.20;;;2.67;;
42632;SDS011;28261;53.304;-6.284;2023-06-22T05:42:39;4.05;;;2.38;;
42632;SDS011;28261;53.304;-6.284;2023-06-22T05:44:42;4.85;;;2.78;;
42632;SDS011;28261;53.304;-6.284;2023-06-22T05:46:47;7.43;;;3.10;;
42632;SDS011;28261;53.304;-6.284;2023-06-22T05:48:51;6.05;;;2.75;;
42632;SDS011;28261;53.304;-6.284;2023-06-22T05:50:54;5.22;;;2.80;;
42632;SDS011;28261;53.304;-6.284;2023-06-22T05:52:58;4.43;;;2.75;;
42632;SDS011;28261;53.304;-6.284;2023-06-22T05:55:03;8.85;;;2.90;;
42632;SDS011;28261;53.304;-6.284;2023-06-22T05:57:07;7.47;;;3.47;;
42632;SDS011;28261;53.304;-6.284;2023-06-22T05:59:10;5.57;;;3.20;;
42632;SDS011;28261;53.304;-6.284;2023-06-22T06:01:14;5.72;;;3.30;;
42632;SDS011;28261;53.304;-6.284;2023-06-22T06:03:18;9.02;;;3.83;;
42632;SDS011;28261;53.304;-6.284;2023-06-22T06:05:21;9.10;;;4.93;;
42632;SDS011;28261;53.304;-6.284;2023-06-22T06:07:27;7.18;;;4.07;;
42632;SDS011;28261;53.304;-6.284;2023-06-22T06:09:30;6.93;;;4.30;;
42632;SDS011;28261;53.304;-6.284;2023-06-22T06:11:35;9.32;;;4.30;;
42632;SDS011;28261;53.304;-6.284;2023-06-22T06:13:38;8.00;;;4.70;;
42632;SDS011;28261;53.304;-6.284;2023-06-22T06:15:43;9.10;;;5.15;;
42632;SDS011;28261;53.304;-6.284;2023-06-22T06:17:47;10.93;;;4.35;;
42632;SDS011;28261;53.304;-6.284;2023-06-22T06:19:50;11.10;;;5.18;;
42632;SDS011;28261;53.304;-6.284;2023-06-22T06:21:54;7.57;;;4.95;;
42632;SDS011;28261;53.304;-6.284;2023-06-22T06:23:58;9.68;;;5.30;;
42632;SDS011;28261;53.304;-6.284;2023-06-22T06:26:01;7.75;;;4.78;;
42632;SDS011;28261;53.304;-6.284;2023-06-22T06:28:10;9.35;;;5.07;;
42632;SDS011;28261;53.304;-6.284;2023-06-22T06:30:14;10.40;;;5.40;;
42632;SDS011;28261;53.304;-6.284;2023-06-22T06:32:18;8.30;;;4.47;;
42632;SDS011;28261;53.304;-6.284;2023-06-22T06:34:22;11.90;;;4.90;;
42632;SDS011;28261;53.304;-6.284;2023-06-22T06:36:25;8.27;;;5.32;;
42632;SDS011;28261;53.304;-6.284;2023-06-22T06:38:30;7.45;;;4.63;;
42632;SDS011;28261;53.304;-6.284;2023-06-22T06:40:33;8.80;;;4.90;;
42632;SDS011;28261;53.304;-6.284;2023-06-22T06:42:37;9.05;;;5.05;;
42632;SDS011;28261;53.304;-6.284;2023-06-22T06:44:45;9.93;;;4.72;;
42632;SDS011;28261;53.304;-6.284;2023-06-22T06:46:49;9.45;;;5.18;;
42632;SDS011;28261;53.304;-6.284;2023-06-22T06:48:52;7.03;;;4.38;;
42632;SDS011;28261;53.304;-6.284;2023-06-22T06:50:56;9.18;;;4.88;;
42632;SDS011;28261;53.304;-6.284;2023-06-22T06:52:59;10.80;;;4.72;;
42632;SDS011;28261;53.304;-6.284;2023-06-22T06:55:03;8.27;;;5.32;;
42632;SDS011;28261;53.304;-6.284;2023-06-22T06:57:09;5.95;;;4.32;;
42632;SDS011;28261;53.304;-6.284;2023-06-22T06:59:15;5.97;;;4.50;;
42632;SDS011;28261;53.304;-6.284;2023-06-22T07:01:20;8.05;;;5.18;;
42632;SDS011;28261;53.304;-6.284;2023-06-22T07:03:23;9.43;;;5.13;;
42632;SDS011;28261;53.304;-6.284;2023-06-22T07:05:26;9.27;;;4.70;;
42632;SDS011;28261;53.304;-6.284;2023-06-22T07:07:30;8.27;;;4.63;;
42632;SDS011;28261;53.304;-6.284;2023-06-22T07:09:36;6.70;;;4.32;;
42632;SDS011;28261;53.304;-6.284;2023-06-22T07:11:39;7.70;;;4.38;;
42632;SDS011;28261;53.304;-6.284;2023-06-22T07:13:43;5.93;;;4.10;;
42632;SDS011;28261;53.304;-6.284;2023-06-22T07:15:46;7.68;;;4.68;;
42632;SDS011;28261;53.304;-6.284;2023-06-22T07:17:51;5.78;;;4.05;;
42632;SDS011;28261;53.304;-6.284;2023-06-22T07:19:54;8.35;;;4.30;;
42632;SDS011;28261;53.304;-6.284;2023-06-22T07:21:58;6.75;;;4.20;;
42632;SDS011;28261;53.304;-6.284;2023-06-22T07:24:01;9.48;;;4.20;;
42632;SDS011;28261;53.304;-6.284;2023-06-22T07:26:07;7.68;;;4.20;;
42632;SDS011;28261;53.304;-6.284;2023-06-22T07:28:11;5.97;;;3.72;;
42632;SDS011;28261;53.304;-6.284;2023-06-22T07:30:14;4.88;;;3.58;;
42632;SDS011;28261;53.304;-6.284;2023-06-22T07:32:18;4.53;;;3.95;;
42632;SDS011;28261;53.304;-6.284;2023-06-22T07:34:22;6.20;;;4.15;;
42632;SDS011;28261;53.304;-6.284;2023-06-22T07:36:26;7.25;;;4.50;;
42632;SDS011;28261;53.304;-6.284;2023-06-22T07:38:31;7.60;;;3.65;;
42632;SDS011;28261;53.304;-6.284;2023-06-22T07:40:36;7.95;;;4.13;;
42632;SDS011;28261;53.304;-6.284;2023-06-22T07:42:39;7.13;;;3.70;;
42632;SDS011;28261;53.304;-6.284;2023-06-22T07:44:43;8.15;;;4.28;;
42632;SDS011;28261;53.304;-6.284;2023-06-22T07:46:47;4.97;;;3.78;;
42632;SDS011;28261;53.304;-6.284;2023-06-22T07:48:51;7.50;;;3.85;;
42632;SDS011;28261;53.304;-6.284;2023-06-22T07:50:59;5.55;;;3.13;;
42632;SDS011;28261;53.304;-6.284;2023-06-22T07:53:02;7.40;;;3.65;;
42632;SDS011;28261;53.304;-6.284;2023-06-22T07:55:07;5.78;;;3.35;;
42632;SDS011;28261;53.304;-6.284;2023-06-22T07:57:11;4.78;;;3.13;;
42632;SDS011;28261;53.304;-6.284;2023-06-22T07:59:15;4.28;;;3.50;;
42632;SDS011;28261;53.304;-6.284;2023-06-22T08:01:20;8.00;;;3.40;;
42632;SDS011;28261;53.304;-6.284;2023-06-22T08:03:24;5.15;;;3.00;;
42632;SDS011;28261;53.304;-6.284;2023-06-22T08:05:28;5.35;;;3.90;;
42632;SDS011;28261;53.304;-6.284;2023-06-22T08:07:34;5.82;;;3.75;;
42632;SDS011;28261;53.304;-6.284;2023-06-22T08:09:42;6.63;;;3.15;;
42632;SDS011;28261;53.304;-6.284;2023-06-22T08:11:51;4.93;;;3.10;;
42632;SDS011;28261;53.304;-6.284;2023-06-22T08:13:56;4.88;;;3.53;;
42632;SDS011;28261;53.304;-6.284;2023-06-22T08:18:04;6.88;;;3.15;;
42632;SDS011;28261;53.304;-6.284;2023-06-22T08:20:09;6.35;;;3.28;;
42632;SDS011;28261;53.304;-6.284;2023-06-22T08:22:15;5.80;;;3.80;;
42632;SDS011;28261;53.304;-6.284;2023-06-22T08:24:22;5.40;;;3.10;;
42632;SDS011;28261;53.304;-6.284;2023-06-22T08:26:26;4.82;;;2.75;;
42632;SDS011;28261;53.304;-6.284;2023-06-22T08:30:34;5.68;;;3.05;;
42632;SDS011;28261;53.304;-6.284;2023-06-22T08:32:38;6.47;;;3.05;;
42632;SDS011;28261;53.304;-6.284;2023-06-22T08:34:42;7.70;;;3.42;;
42632;SDS011;28261;53.304;-6.284;2023-06-22T08:38:53;5.38;;;3.35;;
42632;SDS011;28261;53.304;-6.284;2023-06-22T08:41:05;7.57;;;3.28;;
42632;SDS011;28261;53.304;-6.284;2023-06-22T08:43:08;4.90;;;3.00;;
42632;SDS011;28261;53.304;-6.284;2023-06-22T08:45:13;4.30;;;3.08;;
42632;SDS011;28261;53.304;-6.284;2023-06-22T08:47:18;6.80;;;3.50;;
42632;SDS011;28261;53.304;-6.284;2023-06-22T08:51:26;5.53;;;3.67;;
42632;SDS011;28261;53.304;-6.284;2023-06-22T08:53:31;6.13;;;3.65;;
42632;SDS011;28261;53.304;-6.284;2023-06-22T08:55:37;4.75;;;3.15;;
42632;SDS011;28261;53.304;-6.284;2023-06-22T08:57:42;5.88;;;3.45;;
42632;SDS011;28261;53.304;-6.284;2023-06-22T08:59:46;5.53;;;3.13;;
42632;SDS011;28261;53.304;-6.284;2023-06-22T09:01:50;5.20;;;3.22;;
42632;SDS011;28261;53.304;-6.284;2023-06-22T09:03:55;6.63;;;3.58;;
42632;SDS011;28261;53.304;-6.284;2023-06-22T09:08:04;4.05;;;2.88;;
42632;SDS011;28261;53.304;-6.284;2023-06-22T09:10:08;5.78;;;3.20;;
42632;SDS011;28261;53.304;-6.284;2023-06-22T09:14:18;6.03;;;3.03;;
42632;SDS011;28261;53.304;-6.284;2023-06-22T09:16:22;6.40;;;3.25;;
42632;SDS011;28261;53.304;-6.284;2023-06-22T09:18:26;6.35;;;2.55;;
42632;SDS011;28261;53.304;-6.284;2023-06-22T09:20:30;4.88;;;3.13;;
42632;SDS011;28261;53.304;-6.284;2023-06-22T09:22:34;6.07;;;2.67;;
42632;SDS011;28261;53.304;-6.284;2023-06-22T09:24:38;6.18;;;3.22;;
42632;SDS011;28261;53.304;-6.284;2023-06-22T09:26:42;5.18;;;2.45;;
42632;SDS011;28261;53.304;-6.284;2023-06-22T09:28:46;5.82;;;3.30;;
42632;SDS011;28261;53.304;-6.284;2023-06-22T09:30:52;5.78;;;2.80;;
42632;SDS011;28261;53.304;-6.284;2023-06-22T09:33:00;4.60;;;2.78;;
42632;SDS011;28261;53.304;-6.284;2023-06-22T09:35:04;5.95;;;2.83;;
42632;SDS011;28261;53.304;-6.284;2023-06-22T09:37:10;7.60;;;2.85;;
42632;SDS011;28261;53.304;-6.284;2023-06-22T09:39:14;3.63;;;2.65;;
42632;SDS011;28261;53.304;-6.284;2023-06-22T09:41:18;6.32;;;2.70;;
42632;SDS011;28261;53.304;-6.284;2023-06-22T09:43:22;6.75;;;2.88;;
42632;SDS011;28261;53.304;-6.284;2023-06-22T09:45:26;4.70;;;3.25;;
42632;SDS011;28261;53.304;-6.284;2023-06-22T09:47:31;4.70;;;2.78;;
42632;SDS011;28261;53.304;-6.284;2023-06-22T09:49:35;5.00;;;3.08;;
42632;SDS011;28261;53.304;-6.284;2023-06-22T09:51:49;7.05;;;3.20;;
42632;SDS011;28261;53.304;-6.284;2023-06-22T09:53:53;8.77;;;3.60;;
42632;SDS011;28261;53.304;-6.284;2023-06-22T09:55:57;3.83;;;2.97;;
42632;SDS011;28261;53.304;-6.284;2023-06-22T09:58:01;7.50;;;2.97;;
42632;SDS011;28261;53.304;-6.284;2023-06-22T10:00:06;6.35;;;2.90;;
42632;SDS011;28261;53.304;-6.284;2023-06-22T10:02:13;5.28;;;3.03;;
42632;SDS011;28261;53.304;-6.284;2023-06-22T10:04:18;4.38;;;2.75;;
42632;SDS011;28261;53.304;-6.284;2023-06-22T10:06:23;7.63;;;3.08;;
42632;SDS011;28261;53.304;-6.284;2023-06-22T10:08:28;3.70;;;2.90;;
42632;SDS011;28261;53.304;-6.284;2023-06-22T10:10:32;5.10;;;3.38;;
42632;SDS011;28261;53.304;-6.284;2023-06-22T10:12:36;4.80;;;2.70;;
42632;SDS011;28261;53.304;-6.284;2023-06-22T10:14:46;5.20;;;2.72;;
42632;SDS011;28261;53.304;-6.284;2023-06-22T10:16:51;6.03;;;2.75;;
42632;SDS011;28261;53.304;-6.284;2023-06-22T10:18:57;4.13;;;2.38;;
42632;SDS011;28261;53.304;-6.284;2023-06-22T10:21:03;4.40;;;2.38;;
42632;SDS011;28261;53.304;-6.284;2023-06-22T10:23:07;5.85;;;2.65;;
42632;SDS011;28261;53.304;-6.284;2023-06-22T10:25:12;5.43;;;2.67;;
42632;SDS011;28261;53.304;-6.284;2023-06-22T10:27:16;3.83;;;2.40;;
42632;SDS011;28261;53.304;-6.284;2023-06-22T10:29:20;6.65;;;3.15;;
42632;SDS011;28261;53.304;-6.284;2023-06-22T10:31:25;4.72;;;2.50;;
42632;SDS011;28261;53.304;-6.284;2023-06-22T10:33:29;5.13;;;2.90;;
42632;SDS011;28261;53.304;-6.284;2023-06-22T10:35:33;5.35;;;2.53;;
42632;SDS011;28261;53.304;-6.284;2023-06-22T10:37:41;5.30;;;2.58;;
42632;SDS011;28261;53.304;-6.284;2023-06-22T10:39:46;6.28;;;2.75;;
42632;SDS011;28261;53.304;-6.284;2023-06-22T10:41:50;3.60;;;2.58;;
42632;SDS011;28261;53.304;-6.284;2023-06-22T10:43:54;5.55;;;2.83;;
42632;SDS011;28261;53.304;-6.284;2023-06-22T10:45:58;5.13;;;2.50;;
42632;SDS011;28261;53.304;-6.284;2023-06-22T10:48:02;5.50;;;2.70;;
42632;SDS011;28261;53.304;-6.284;2023-06-22T10:52:11;4.82;;;2.75;;
42632;SDS011;28261;53.304;-6.284;2023-06-22T10:54:17;4.63;;;2.53;;
42632;SDS011;28261;53.304;-6.284;2023-06-22T10:56:22;5.28;;;2.65;;
42632;SDS011;28261;53.304;-6.284;2023-06-22T10:58:26;4.53;;;2.60;;
42632;SDS011;28261;53.304;-6.284;2023-06-22T11:00:30;6.82;;;2.60;;
42632;SDS011;28261;53.304;-6.284;2023-06-22T11:02:34;6.20;;;2.75;;
42632;SDS011;28261;53.304;-6.284;2023-06-22T11:04:39;5.18;;;2.72;;
42632;SDS011;28261;53.304;-6.284;2023-06-22T11:06:43;5.57;;;2.88;;
42632;SDS011;28261;53.304;-6.284;2023-06-22T11:08:47;4.60;;;2.67;;
42632;SDS011;28261;53.304;-6.284;2023-06-22T11:11:07;6.00;;;2.67;;
42632;SDS011;28261;53.304;-6.284;2023-06-22T11:13:11;4.53;;;2.63;;
42632;SDS011;28261;53.304;-6.284;2023-06-22T11:15:15;4.93;;;2.85;;
42632;SDS011;28261;53.304;-6.284;2023-06-22T11:19:24;4.75;;;2.70;;
42632;SDS011;28261;53.304;-6.284;2023-06-22T11:21:28;6.70;;;3.53;;
42632;SDS011;28261;53.304;-6.284;2023-06-22T11:23:33;3.72;;;2.45;;
42632;SDS011;28261;53.304;-6.284;2023-06-22T11:25:38;4.50;;;2.95;;
42632;SDS011;28261;53.304;-6.284;2023-06-22T11:27:46;6.55;;;3.15;;
42632;SDS011;28261;53.304;-6.284;2023-06-22T11:29:50;5.88;;;3.58;;
42632;SDS011;28261;53.304;-6.284;2023-06-22T11:31:55;3.83;;;2.90;;
42632;SDS011;28261;53.304;-6.284;2023-06-22T11:33:59;4.70;;;2.95;;
42632;SDS011;28261;53.304;-6.284;2023-06-22T11:36:05;6.22;;;2.88;;
42632;SDS011;28261;53.304;-6.284;2023-06-22T11:38:09;3.92;;;2.90;;
42632;SDS011;28261;53.304;-6.284;2023-06-22T11:40:14;6.57;;;2.92;;
42632;SDS011;28261;53.304;-6.284;2023-06-22T11:42:20;6.78;;;2.83;;
42632;SDS011;28261;53.304;-6.284;2023-06-22T11:44:27;4.40;;;2.97;;
42632;SDS011;28261;53.304;-6.284;2023-06-22T11:46:32;4.53;;;2.92;;
42632;SDS011;28261;53.304;-6.284;2023-06-22T11:48:37;3.63;;;3.25;;
42632;SDS011;28261;53.304;-6.284;2023-06-22T11:50:41;5.75;;;3.05;;
42632;SDS011;28261;53.304;-6.284;2023-06-22T11:52:46;5.10;;;2.65;;
42632;SDS011;28261;53.304;-6.284;2023-06-22T11:54:50;4.95;;;2.92;;
42632;SDS011;28261;53.304;-6.284;2023-06-22T11:56:54;5.10;;;2.88;;
42632;SDS011;28261;53.304;-6.284;2023-06-22T11:58:59;7.45;;;2.80;;
42632;SDS011;28261;53.304;-6.284;2023-06-22T12:01:05;7.22;;;3.25;;
42632;SDS011;28261;53.304;-6.284;2023-06-22T12:03:09;5.90;;;3.10;;
42632;SDS011;28261;53.304;-6.284;2023-06-22T12:05:13;4.47;;;2.90;;
42632;SDS011;28261;53.304;-6.284;2023-06-22T12:07:18;8.65;;;3.55;;
42632;SDS011;28261;53.304;-6.284;2023-06-22T12:09:22;6.47;;;3.35;;
42632;SDS011;28261;53.304;-6.284;2023-06-22T12:11:26;5.13;;;3.10;;
42632;SDS011;28261;53.304;-6.284;2023-06-22T12:13:30;6.32;;;3.65;;
42632;SDS011;28261;53.304;-6.284;2023-06-22T12:15:35;6.13;;;3.22;;
42632;SDS011;28261;53.304;-6.284;2023-06-22T12:17:40;4.78;;;3.53;;
42632;SDS011;28261;53.304;-6.284;2023-06-22T12:19:44;5.68;;;3.40;;
42632;SDS011;28261;53.304;-6.284;2023-06-22T12:21:49;5.35;;;2.92;;
42632;SDS011;28261;53.304;-6.284;2023-06-22T12:23:53;8.68;;;3.40;;
42632;SDS011;28261;53.304;-6.284;2023-06-22T12:25:57;6.95;;;3.75;;
42632;SDS011;28261;53.304;-6.284;2023-06-22T12:28:01;4.80;;;3.03;;
42632;SDS011;28261;53.304;-6.284;2023-06-22T12:30:06;5.90;;;3.15;;
42632;SDS011;28261;53.304;-6.284;2023-06-22T12:32:12;4.85;;;3.10;;
42632;SDS011;28261;53.304;-6.284;2023-06-22T12:34:18;4.78;;;3.25;;
42632;SDS011;28261;53.304;-6.284;2023-06-22T12:36:22;5.15;;;3.30;;
42632;SDS011;28261;53.304;-6.284;2023-06-22T12:38:26;6.30;;;3.22;;
42632;SDS011;28261;53.304;-6.284;2023-06-22T12:40:30;6.30;;;3.50;;
42632;SDS011;28261;53.304;-6.284;2023-06-22T12:42:35;4.55;;;3.20;;
42632;SDS011;28261;53.304;-6.284;2023-06-22T12:44:39;5.75;;;3.28;;
42632;SDS011;28261;53.304;-6.284;2023-06-22T12:46:43;4.75;;;3.15;;
42632;SDS011;28261;53.304;-6.284;2023-06-22T12:48:47;7.13;;;3.45;;